sensor_id;sensor_type;location;lat;lon;timestamp;P1;durP1;ratioP1;P2;durP2;ratioP2
23988;SDS011;12202;52.136;5.592;2023-02-19T00:00:30;89.53;;;30.85;;
23988;SDS011;12202;52.136;5.592;2023-02-19T00:02:56;73.93;;;28.23;;
23988;SDS011;12202;52.136;5.592;2023-02-19T00:05:22;78.72;;;27.83;;
23988;SDS011;12202;52.136;5.592;2023-02-19T00:07:49;76.45;;;29.48;;
23988;SDS011;12202;52.136;5.592;2023-02-19T00:10:15;75.38;;;27.98;;
23988;SDS011;12202;52.136;5.592;2023-02-19T00:12:40;85.43;;;29.55;;
23988;SDS011;12202;52.136;5.592;2023-02-19T00:15:06;77.35;;;27.23;;
23988;SDS011;12202;52.136;5.592;2023-02-19T00:17:32;68.95;;;27.23;;
23988;SDS011;12202;52.136;5.592;2023-02-19T00:19:58;64.47;;;25.33;;
23988;SDS011;12202;52.136;5.592;2023-02-19T00:22:24;66.45;;;25.15;;
23988;SDS011;12202;52.136;5.592;2023-02-19T00:24:50;58.58;;;20.98;;
23988;SDS011;12202;52.136;5.592;2023-02-19T00:27:16;61.58;;;22.27;;
23988;SDS011;12202;52.136;5.592;2023-02-19T00:29:42;51.15;;;19.05;;
23988;SDS011;12202;52.136;5.592;2023-02-19T00:32:08;57.67;;;19.35;;
23988;SDS011;12202;52.136;5.592;2023-02-19T00:34:34;44.42;;;19.25;;
23988;SDS011;12202;52.136;5.592;2023-02-19T00:37:00;44.25;;;17.77;;
23988;SDS011;12202;52.136;5.592;2023-02-19T00:39:26;46.38;;;17.67;;
23988;SDS011;12202;52.136;5.592;2023-02-19T00:41:52;50.10;;;16.40;;
23988;SDS011;12202;52.136;5.592;2023-02-19T00:44:18;45.60;;;16.02;;
23988;SDS011;12202;52.136;5.592;2023-02-19T00:46:45;36.10;;;15.07;;
23988;SDS011;12202;52.136;5.592;2023-02-19T00:49:13;37.30;;;15.05;;
23988;SDS011;12202;52.136;5.592;2023-02-19T00:51:40;34.17;;;13.90;;
23988;SDS011;12202;52.136;5.592;2023-02-19T00:54:06;41.90;;;14.15;;
23988;SDS011;12202;52.136;5.592;2023-02-19T00:56:32;34.58;;;13.85;;
23988;SDS011;12202;52.136;5.592;2023-02-19T00:58:58;45.90;;;15.60;;
23988;SDS011;12202;52.136;5.592;2023-02-19T01:01:24;39.58;;;14.23;;
23988;SDS011;12202;52.136;5.592;2023-02-19T01:03:50;48.42;;;16.77;;
23988;SDS011;12202;52.136;5.592;2023-02-19T01:06:17;37.30;;;15.90;;
23988;SDS011;12202;52.136;5.592;2023-02-19T01:08:43;44.90;;;15.15;;
23988;SDS011;12202;52.136;5.592;2023-02-19T01:11:10;37.05;;;14.65;;
23988;SDS011;12202;52.136;5.592;2023-02-19T01:13:36;41.58;;;15.40;;
23988;SDS011;12202;52.136;5.592;2023-02-19T01:18:31;53.85;;;18.25;;
23988;SDS011;12202;52.136;5.592;2023-02-19T01:20:57;42.50;;;18.00;;
23988;SDS011;12202;52.136;5.592;2023-02-19T01:23:23;45.30;;;16.80;;
23988;SDS011;12202;52.136;5.592;2023-02-19T01:25:50;57.38;;;19.58;;
23988;SDS011;12202;52.136;5.592;2023-02-19T01:28:15;39.83;;;17.17;;
23988;SDS011;12202;52.136;5.592;2023-02-19T01:31:00;53.70;;;19.23;;
23988;SDS011;12202;52.136;5.592;2023-02-19T01:33:26;45.08;;;18.35;;
23988;SDS011;12202;52.136;5.592;2023-02-19T01:35:52;49.88;;;17.60;;
23988;SDS011;12202;52.136;5.592;2023-02-19T01:38:18;50.10;;;18.02;;
23988;SDS011;12202;52.136;5.592;2023-02-19T01:40:52;45.75;;;18.75;;
23988;SDS011;12202;52.136;5.592;2023-02-19T01:43:18;47.83;;;17.88;;
23988;SDS011;12202;52.136;5.592;2023-02-19T01:45:44;43.40;;;18.02;;
23988;SDS011;12202;52.136;5.592;2023-02-19T01:48:11;47.35;;;17.92;;
23988;SDS011;12202;52.136;5.592;2023-02-19T01:50:49;53.17;;;18.52;;
23988;SDS011;12202;52.136;5.592;2023-02-19T01:53:18;42.53;;;18.15;;
23988;SDS011;12202;52.136;5.592;2023-02-19T01:55:45;48.97;;;16.85;;
23988;SDS011;12202;52.136;5.592;2023-02-19T01:58:13;52.65;;;17.50;;
23988;SDS011;12202;52.136;5.592;2023-02-19T02:00:39;49.70;;;17.98;;
23988;SDS011;12202;52.136;5.592;2023-02-19T02:03:05;44.58;;;16.50;;
23988;SDS011;12202;52.136;5.592;2023-02-19T02:08:07;42.53;;;15.93;;
23988;SDS011;12202;52.136;5.592;2023-02-19T02:10:51;40.33;;;15.80;;
23988;SDS011;12202;52.136;5.592;2023-02-19T02:13:17;32.65;;;15.30;;
23988;SDS011;12202;52.136;5.592;2023-02-19T02:18:22;32.83;;;16.00;;
23988;SDS011;12202;52.136;5.592;2023-02-19T02:21:14;42.60;;;17.30;;
23988;SDS011;12202;52.136;5.592;2023-02-19T02:23:49;38.33;;;14.77;;
23988;SDS011;12202;52.136;5.592;2023-02-19T02:26:24;39.58;;;16.90;;
23988;SDS011;12202;52.136;5.592;2023-02-19T02:29:01;46.60;;;17.35;;
23988;SDS011;12202;52.136;5.592;2023-02-19T02:31:34;45.60;;;16.75;;
23988;SDS011;12202;52.136;5.592;2023-02-19T02:34:05;48.33;;;17.13;;
23988;SDS011;12202;52.136;5.592;2023-02-19T02:36:37;49.08;;;18.40;;
23988;SDS011;12202;52.136;5.592;2023-02-19T02:39:05;41.20;;;15.75;;
23988;SDS011;12202;52.136;5.592;2023-02-19T02:41:32;47.55;;;15.80;;
23988;SDS011;12202;52.136;5.592;2023-02-19T02:43:58;46.00;;;16.50;;
23988;SDS011;12202;52.136;5.592;2023-02-19T02:46:27;40.08;;;15.45;;
23988;SDS011;12202;52.136;5.592;2023-02-19T02:48:58;45.25;;;17.67;;
23988;SDS011;12202;52.136;5.592;2023-02-19T02:51:28;38.67;;;15.07;;
23988;SDS011;12202;52.136;5.592;2023-02-19T02:53:56;33.25;;;13.32;;
23988;SDS011;12202;52.136;5.592;2023-02-19T02:56:42;40.05;;;13.50;;
23988;SDS011;12202;52.136;5.592;2023-02-19T02:59:10;28.15;;;12.15;;
23988;SDS011;12202;52.136;5.592;2023-02-19T03:02:21;41.55;;;14.93;;
23988;SDS011;12202;52.136;5.592;2023-02-19T03:07:02;44.83;;;11.90;;
23988;SDS011;12202;52.136;5.592;2023-02-19T03:09:37;45.72;;;11.30;;
23988;SDS011;12202;52.136;5.592;2023-02-19T03:12:04;37.13;;;12.50;;
23988;SDS011;12202;52.136;5.592;2023-02-19T03:14:51;29.10;;;10.65;;
23988;SDS011;12202;52.136;5.592;2023-02-19T03:17:39;32.58;;;11.23;;
23988;SDS011;12202;52.136;5.592;2023-02-19T03:20:26;40.60;;;11.23;;
23988;SDS011;12202;52.136;5.592;2023-02-19T03:22:52;34.55;;;11.82;;
23988;SDS011;12202;52.136;5.592;2023-02-19T03:25:21;32.88;;;10.50;;
23988;SDS011;12202;52.136;5.592;2023-02-19T03:28:07;39.85;;;10.40;;
23988;SDS011;12202;52.136;5.592;2023-02-19T03:30:34;31.98;;;10.27;;
23988;SDS011;12202;52.136;5.592;2023-02-19T03:33:02;30.65;;;10.13;;
23988;SDS011;12202;52.136;5.592;2023-02-19T03:35:32;33.85;;;9.82;;
23988;SDS011;12202;52.136;5.592;2023-02-19T03:40:26;35.78;;;10.35;;
23988;SDS011;12202;52.136;5.592;2023-02-19T03:45:30;36.70;;;11.85;;
23988;SDS011;12202;52.136;5.592;2023-02-19T03:53:08;39.92;;;11.65;;
23988;SDS011;12202;52.136;5.592;2023-02-19T04:00:47;31.42;;;11.93;;
23988;SDS011;12202;52.136;5.592;2023-02-19T04:05:45;27.17;;;9.85;;
23988;SDS011;12202;52.136;5.592;2023-02-19T04:08:19;31.08;;;10.98;;
23988;SDS011;12202;52.136;5.592;2023-02-19T04:10:46;36.15;;;11.20;;
23988;SDS011;12202;52.136;5.592;2023-02-19T04:13:15;34.83;;;11.52;;
23988;SDS011;12202;52.136;5.592;2023-02-19T04:15:43;24.00;;;10.77;;
23988;SDS011;12202;52.136;5.592;2023-02-19T04:18:12;26.77;;;10.43;;
23988;SDS011;12202;52.136;5.592;2023-02-19T04:20:39;35.67;;;11.52;;
23988;SDS011;12202;52.136;5.592;2023-02-19T04:23:06;34.17;;;12.68;;
23988;SDS011;12202;52.136;5.592;2023-02-19T04:25:33;25.45;;;10.43;;
23988;SDS011;12202;52.136;5.592;2023-02-19T04:28:01;32.45;;;11.43;;
23988;SDS011;12202;52.136;5.592;2023-02-19T04:30:27;34.65;;;14.30;;
23988;SDS011;12202;52.136;5.592;2023-02-19T04:32:53;34.50;;;12.70;;
23988;SDS011;12202;52.136;5.592;2023-02-19T04:35:19;37.42;;;11.73;;
23988;SDS011;12202;52.136;5.592;2023-02-19T04:37:45;29.00;;;10.63;;
23988;SDS011;12202;52.136;5.592;2023-02-19T04:40:11;36.67;;;11.45;;
23988;SDS011;12202;52.136;5.592;2023-02-19T04:42:37;25.40;;;10.82;;
23988;SDS011;12202;52.136;5.592;2023-02-19T04:45:03;24.02;;;10.90;;
23988;SDS011;12202;52.136;5.592;2023-02-19T04:47:30;25.83;;;10.25;;
23988;SDS011;12202;52.136;5.592;2023-02-19T04:49:56;22.00;;;10.13;;
23988;SDS011;12202;52.136;5.592;2023-02-19T04:52:22;31.08;;;11.45;;
23988;SDS011;12202;52.136;5.592;2023-02-19T04:54:48;31.70;;;11.13;;
23988;SDS011;12202;52.136;5.592;2023-02-19T04:57:14;26.48;;;11.00;;
23988;SDS011;12202;52.136;5.592;2023-02-19T04:59:40;26.40;;;11.75;;
23988;SDS011;12202;52.136;5.592;2023-02-19T05:02:06;36.53;;;11.93;;
23988;SDS011;12202;52.136;5.592;2023-02-19T05:04:32;31.23;;;11.52;;
23988;SDS011;12202;52.136;5.592;2023-02-19T05:06:58;32.88;;;11.43;;
23988;SDS011;12202;52.136;5.592;2023-02-19T05:09:24;33.25;;;12.32;;
23988;SDS011;12202;52.136;5.592;2023-02-19T05:11:50;22.23;;;11.07;;
23988;SDS011;12202;52.136;5.592;2023-02-19T05:14:26;35.35;;;12.23;;
23988;SDS011;12202;52.136;5.592;2023-02-19T05:20:29;35.63;;;12.82;;
23988;SDS011;12202;52.136;5.592;2023-02-19T05:22:55;34.08;;;11.57;;
23988;SDS011;12202;52.136;5.592;2023-02-19T05:25:21;39.67;;;11.60;;
23988;SDS011;12202;52.136;5.592;2023-02-19T05:27:46;30.90;;;11.48;;
23988;SDS011;12202;52.136;5.592;2023-02-19T05:30:12;27.92;;;11.90;;
23988;SDS011;12202;52.136;5.592;2023-02-19T05:32:38;35.75;;;11.48;;
23988;SDS011;12202;52.136;5.592;2023-02-19T05:35:04;28.90;;;10.35;;
23988;SDS011;12202;52.136;5.592;2023-02-19T05:37:30;24.58;;;9.63;;
23988;SDS011;12202;52.136;5.592;2023-02-19T05:39:56;27.92;;;10.27;;
23988;SDS011;12202;52.136;5.592;2023-02-19T05:42:22;33.72;;;10.30;;
23988;SDS011;12202;52.136;5.592;2023-02-19T05:44:48;33.40;;;11.65;;
23988;SDS011;12202;52.136;5.592;2023-02-19T05:47:14;36.08;;;10.32;;
23988;SDS011;12202;52.136;5.592;2023-02-19T05:49:40;34.28;;;13.68;;
23988;SDS011;12202;52.136;5.592;2023-02-19T05:52:06;33.58;;;10.48;;
23988;SDS011;12202;52.136;5.592;2023-02-19T05:54:32;31.17;;;9.93;;
23988;SDS011;12202;52.136;5.592;2023-02-19T05:56:58;31.27;;;10.05;;
23988;SDS011;12202;52.136;5.592;2023-02-19T05:59:24;23.58;;;8.57;;
23988;SDS011;12202;52.136;5.592;2023-02-19T06:01:51;32.95;;;10.10;;
23988;SDS011;12202;52.136;5.592;2023-02-19T06:04:18;29.02;;;9.88;;
23988;SDS011;12202;52.136;5.592;2023-02-19T06:06:44;36.05;;;10.18;;
23988;SDS011;12202;52.136;5.592;2023-02-19T06:09:11;30.67;;;10.05;;
23988;SDS011;12202;52.136;5.592;2023-02-19T06:11:37;31.33;;;10.32;;
23988;SDS011;12202;52.136;5.592;2023-02-19T06:14:03;28.20;;;10.45;;
23988;SDS011;12202;52.136;5.592;2023-02-19T06:16:29;29.13;;;10.85;;
23988;SDS011;12202;52.136;5.592;2023-02-19T06:18:57;33.53;;;13.30;;
23988;SDS011;12202;52.136;5.592;2023-02-19T06:21:23;43.20;;;13.32;;
23988;SDS011;12202;52.136;5.592;2023-02-19T06:23:49;45.00;;;14.77;;
23988;SDS011;12202;52.136;5.592;2023-02-19T06:26:17;39.45;;;14.85;;
23988;SDS011;12202;52.136;5.592;2023-02-19T06:28:44;40.78;;;14.77;;
23988;SDS011;12202;52.136;5.592;2023-02-19T06:31:11;48.78;;;16.30;;
23988;SDS011;12202;52.136;5.592;2023-02-19T06:33:37;47.80;;;16.85;;
23988;SDS011;12202;52.136;5.592;2023-02-19T06:36:10;46.30;;;17.35;;
23988;SDS011;12202;52.136;5.592;2023-02-19T06:38:36;38.90;;;17.63;;
23988;SDS011;12202;52.136;5.592;2023-02-19T06:41:03;43.40;;;17.85;;
23988;SDS011;12202;52.136;5.592;2023-02-19T06:43:30;50.40;;;19.70;;
23988;SDS011;12202;52.136;5.592;2023-02-19T06:45:57;53.83;;;21.58;;
23988;SDS011;12202;52.136;5.592;2023-02-19T06:48:24;55.22;;;21.80;;
23988;SDS011;12202;52.136;5.592;2023-02-19T06:50:50;63.53;;;21.85;;
23988;SDS011;12202;52.136;5.592;2023-02-19T06:53:16;52.35;;;22.45;;
23988;SDS011;12202;52.136;5.592;2023-02-19T06:55:42;54.45;;;21.83;;
23988;SDS011;12202;52.136;5.592;2023-02-19T06:58:08;59.10;;;22.45;;
23988;SDS011;12202;52.136;5.592;2023-02-19T07:00:34;62.13;;;21.77;;
23988;SDS011;12202;52.136;5.592;2023-02-19T07:03:00;57.83;;;24.10;;
23988;SDS011;12202;52.136;5.592;2023-02-19T07:05:26;60.78;;;22.77;;
23988;SDS011;12202;52.136;5.592;2023-02-19T07:07:52;47.47;;;21.27;;
23988;SDS011;12202;52.136;5.592;2023-02-19T07:10:18;51.80;;;23.52;;
23988;SDS011;12202;52.136;5.592;2023-02-19T07:12:44;52.20;;;22.13;;
23988;SDS011;12202;52.136;5.592;2023-02-19T07:15:10;50.53;;;24.15;;
23988;SDS011;12202;52.136;5.592;2023-02-19T07:17:36;56.20;;;24.73;;
23988;SDS011;12202;52.136;5.592;2023-02-19T07:20:02;68.70;;;26.23;;
23988;SDS011;12202;52.136;5.592;2023-02-19T07:22:28;55.78;;;25.55;;
23988;SDS011;12202;52.136;5.592;2023-02-19T07:24:54;55.08;;;26.83;;
23988;SDS011;12202;52.136;5.592;2023-02-19T07:27:20;69.50;;;26.70;;
23988;SDS011;12202;52.136;5.592;2023-02-19T07:29:46;64.80;;;26.98;;
23988;SDS011;12202;52.136;5.592;2023-02-19T07:32:11;62.70;;;26.92;;
23988;SDS011;12202;52.136;5.592;2023-02-19T07:34:37;71.47;;;26.73;;
23988;SDS011;12202;52.136;5.592;2023-02-19T07:37:03;75.70;;;26.55;;
23988;SDS011;12202;52.136;5.592;2023-02-19T07:39:29;64.15;;;27.00;;
23988;SDS011;12202;52.136;5.592;2023-02-19T07:41:56;60.05;;;25.45;;
23988;SDS011;12202;52.136;5.592;2023-02-19T07:44:22;72.88;;;27.60;;
23988;SDS011;12202;52.136;5.592;2023-02-19T07:46:48;55.63;;;26.13;;
23988;SDS011;12202;52.136;5.592;2023-02-19T07:49:14;66.82;;;27.23;;
23988;SDS011;12202;52.136;5.592;2023-02-19T07:51:40;64.93;;;25.90;;
23988;SDS011;12202;52.136;5.592;2023-02-19T07:54:07;63.28;;;26.58;;
23988;SDS011;12202;52.136;5.592;2023-02-19T07:56:33;67.43;;;26.60;;
23988;SDS011;12202;52.136;5.592;2023-02-19T07:58:59;70.15;;;25.45;;
23988;SDS011;12202;52.136;5.592;2023-02-19T08:01:25;53.83;;;24.05;;
23988;SDS011;12202;52.136;5.592;2023-02-19T08:04:11;63.20;;;26.52;;
23988;SDS011;12202;52.136;5.592;2023-02-19T08:06:37;59.22;;;24.63;;
23988;SDS011;12202;52.136;5.592;2023-02-19T08:09:03;73.70;;;26.52;;
23988;SDS011;12202;52.136;5.592;2023-02-19T08:11:29;70.35;;;25.17;;
23988;SDS011;12202;52.136;5.592;2023-02-19T08:14:28;68.28;;;25.38;;
23988;SDS011;12202;52.136;5.592;2023-02-19T08:16:54;49.72;;;22.10;;
23988;SDS011;12202;52.136;5.592;2023-02-19T08:19:20;59.60;;;23.42;;
23988;SDS011;12202;52.136;5.592;2023-02-19T08:21:46;56.15;;;23.38;;
23988;SDS011;12202;52.136;5.592;2023-02-19T08:24:12;60.03;;;24.10;;
23988;SDS011;12202;52.136;5.592;2023-02-19T08:26:38;53.05;;;22.45;;
23988;SDS011;12202;52.136;5.592;2023-02-19T08:29:04;57.08;;;22.58;;
23988;SDS011;12202;52.136;5.592;2023-02-19T08:31:31;63.92;;;22.83;;
23988;SDS011;12202;52.136;5.592;2023-02-19T08:33:57;53.58;;;23.08;;
23988;SDS011;12202;52.136;5.592;2023-02-19T08:36:23;68.13;;;22.75;;
23988;SDS011;12202;52.136;5.592;2023-02-19T08:38:49;64.70;;;22.45;;
23988;SDS011;12202;52.136;5.592;2023-02-19T08:41:15;56.75;;;22.58;;
23988;SDS011;12202;52.136;5.592;2023-02-19T08:43:41;63.58;;;23.50;;
23988;SDS011;12202;52.136;5.592;2023-02-19T08:46:07;56.15;;;23.52;;
23988;SDS011;12202;52.136;5.592;2023-02-19T08:48:34;54.20;;;24.02;;
23988;SDS011;12202;52.136;5.592;2023-02-19T08:51:00;53.28;;;24.10;;
23988;SDS011;12202;52.136;5.592;2023-02-19T08:53:28;49.45;;;21.92;;
23988;SDS011;12202;52.136;5.592;2023-02-19T08:55:54;50.10;;;21.33;;
23988;SDS011;12202;52.136;5.592;2023-02-19T08:58:20;48.42;;;19.48;;
23988;SDS011;12202;52.136;5.592;2023-02-19T09:00:46;49.58;;;20.05;;
23988;SDS011;12202;52.136;5.592;2023-02-19T09:03:12;42.65;;;19.73;;
23988;SDS011;12202;52.136;5.592;2023-02-19T09:05:39;46.60;;;19.35;;
23988;SDS011;12202;52.136;5.592;2023-02-19T09:08:05;44.83;;;19.92;;
23988;SDS011;12202;52.136;5.592;2023-02-19T09:10:31;46.78;;;20.38;;
23988;SDS011;12202;52.136;5.592;2023-02-19T09:12:57;47.33;;;21.77;;
23988;SDS011;12202;52.136;5.592;2023-02-19T09:15:23;55.05;;;23.05;;
23988;SDS011;12202;52.136;5.592;2023-02-19T09:17:52;49.92;;;21.63;;
23988;SDS011;12202;52.136;5.592;2023-02-19T09:20:18;53.20;;;21.90;;
23988;SDS011;12202;52.136;5.592;2023-02-19T09:22:44;47.78;;;20.88;;
23988;SDS011;12202;52.136;5.592;2023-02-19T09:25:10;47.70;;;20.73;;
23988;SDS011;12202;52.136;5.592;2023-02-19T09:27:36;42.00;;;20.17;;
23988;SDS011;12202;52.136;5.592;2023-02-19T09:30:02;46.08;;;20.42;;
23988;SDS011;12202;52.136;5.592;2023-02-19T09:32:31;40.83;;;19.73;;
23988;SDS011;12202;52.136;5.592;2023-02-19T09:34:57;44.97;;;19.88;;
23988;SDS011;12202;52.136;5.592;2023-02-19T09:37:24;42.97;;;22.23;;
23988;SDS011;12202;52.136;5.592;2023-02-19T09:39:50;53.75;;;25.60;;
23988;SDS011;12202;52.136;5.592;2023-02-19T09:42:17;63.88;;;25.10;;
23988;SDS011;12202;52.136;5.592;2023-02-19T09:44:48;53.63;;;20.67;;
23988;SDS011;12202;52.136;5.592;2023-02-19T09:47:25;35.25;;;19.38;;
23988;SDS011;12202;52.136;5.592;2023-02-19T09:49:53;46.47;;;21.98;;
23988;SDS011;12202;52.136;5.592;2023-02-19T09:54:48;19.60;;;10.15;;
23988;SDS011;12202;52.136;5.592;2023-02-19T09:57:16;20.08;;;8.30;;
23988;SDS011;12202;52.136;5.592;2023-02-19T09:59:44;20.05;;;7.90;;
23988;SDS011;12202;52.136;5.592;2023-02-19T10:02:13;13.93;;;6.57;;
23988;SDS011;12202;52.136;5.592;2023-02-19T10:04:40;16.40;;;8.10;;
23988;SDS011;12202;52.136;5.592;2023-02-19T10:07:13;18.58;;;7.82;;
23988;SDS011;12202;52.136;5.592;2023-02-19T10:09:40;13.95;;;6.45;;
23988;SDS011;12202;52.136;5.592;2023-02-19T10:12:26;15.00;;;6.65;;
23988;SDS011;12202;52.136;5.592;2023-02-19T10:14:54;16.50;;;6.07;;
23988;SDS011;12202;52.136;5.592;2023-02-19T10:17:23;20.13;;;6.75;;
23988;SDS011;12202;52.136;5.592;2023-02-19T10:19:50;14.50;;;5.90;;
23988;SDS011;12202;52.136;5.592;2023-02-19T10:22:16;14.35;;;6.32;;
23988;SDS011;12202;52.136;5.592;2023-02-19T10:24:43;14.05;;;6.15;;
23988;SDS011;12202;52.136;5.592;2023-02-19T10:27:13;22.48;;;6.75;;
23988;SDS011;12202;52.136;5.592;2023-02-19T10:29:39;16.38;;;6.32;;
23988;SDS011;12202;52.136;5.592;2023-02-19T10:32:16;16.05;;;7.40;;
23988;SDS011;12202;52.136;5.592;2023-02-19T10:34:44;14.07;;;6.28;;
23988;SDS011;12202;52.136;5.592;2023-02-19T10:37:12;11.70;;;5.57;;
23988;SDS011;12202;52.136;5.592;2023-02-19T10:39:42;13.77;;;6.07;;
23988;SDS011;12202;52.136;5.592;2023-02-19T10:42:14;13.63;;;6.95;;
23988;SDS011;12202;52.136;5.592;2023-02-19T10:44:41;16.92;;;7.35;;
23988;SDS011;12202;52.136;5.592;2023-02-19T10:47:08;9.75;;;5.30;;
23988;SDS011;12202;52.136;5.592;2023-02-19T10:49:40;11.35;;;5.40;;
23988;SDS011;12202;52.136;5.592;2023-02-19T10:52:14;15.00;;;5.32;;
23988;SDS011;12202;52.136;5.592;2023-02-19T10:54:44;11.70;;;5.30;;
23988;SDS011;12202;52.136;5.592;2023-02-19T10:59:56;13.60;;;4.53;;
23988;SDS011;12202;52.136;5.592;2023-02-19T11:02:22;14.98;;;5.13;;
23988;SDS011;12202;52.136;5.592;2023-02-19T11:05:00;13.43;;;7.38;;
23988;SDS011;12202;52.136;5.592;2023-02-19T11:07:26;15.35;;;8.27;;
23988;SDS011;12202;52.136;5.592;2023-02-19T11:09:53;14.35;;;6.05;;
23988;SDS011;12202;52.136;5.592;2023-02-19T11:12:22;18.05;;;6.15;;
23988;SDS011;12202;52.136;5.592;2023-02-19T11:14:49;12.50;;;5.50;;
23988;SDS011;12202;52.136;5.592;2023-02-19T11:17:22;10.38;;;5.72;;
23988;SDS011;12202;52.136;5.592;2023-02-19T11:19:50;15.45;;;8.07;;
23988;SDS011;12202;52.136;5.592;2023-02-19T11:22:26;13.30;;;6.90;;
23988;SDS011;12202;52.136;5.592;2023-02-19T11:24:53;12.75;;;6.95;;
23988;SDS011;12202;52.136;5.592;2023-02-19T11:27:21;12.55;;;6.57;;
23988;SDS011;12202;52.136;5.592;2023-02-19T11:29:47;12.02;;;6.35;;
23988;SDS011;12202;52.136;5.592;2023-02-19T11:34:45;8.60;;;4.63;;
23988;SDS011;12202;52.136;5.592;2023-02-19T11:37:15;11.38;;;4.90;;
23988;SDS011;12202;52.136;5.592;2023-02-19T11:39:42;10.73;;;5.43;;
23988;SDS011;12202;52.136;5.592;2023-02-19T11:44:44;7.90;;;4.32;;
23988;SDS011;12202;52.136;5.592;2023-02-19T12:00:30;5.68;;;3.08;;
23988;SDS011;12202;52.136;5.592;2023-02-19T12:08:35;3.67;;;1.88;;
23988;SDS011;12202;52.136;5.592;2023-02-19T12:13:50;5.68;;;3.47;;
23988;SDS011;12202;52.136;5.592;2023-02-19T12:16:37;4.32;;;2.85;;
23988;SDS011;12202;52.136;5.592;2023-02-19T12:21:51;10.15;;;4.80;;
23988;SDS011;12202;52.136;5.592;2023-02-19T12:45:21;9.95;;;5.82;;
23988;SDS011;12202;52.136;5.592;2023-02-19T12:47:56;13.77;;;6.30;;
23988;SDS011;12202;52.136;5.592;2023-02-19T12:50:24;7.45;;;4.30;;
23988;SDS011;12202;52.136;5.592;2023-02-19T12:52:52;7.45;;;4.13;;
23988;SDS011;12202;52.136;5.592;2023-02-19T12:55:21;7.07;;;4.35;;
23988;SDS011;12202;52.136;5.592;2023-02-19T12:57:47;7.20;;;4.00;;
23988;SDS011;12202;52.136;5.592;2023-02-19T13:03:01;6.43;;;4.22;;
23988;SDS011;12202;52.136;5.592;2023-02-19T13:05:43;9.48;;;4.65;;
23988;SDS011;12202;52.136;5.592;2023-02-19T13:08:13;7.72;;;3.28;;
23988;SDS011;12202;52.136;5.592;2023-02-19T13:13:11;7.88;;;4.43;;
23988;SDS011;12202;52.136;5.592;2023-02-19T13:15:45;6.88;;;4.97;;
23988;SDS011;12202;52.136;5.592;2023-02-19T13:18:13;9.13;;;5.30;;
23988;SDS011;12202;52.136;5.592;2023-02-19T13:20:43;12.05;;;5.68;;
23988;SDS011;12202;52.136;5.592;2023-02-19T13:23:20;11.30;;;5.22;;
23988;SDS011;12202;52.136;5.592;2023-02-19T13:26:09;6.72;;;3.95;;
23988;SDS011;12202;52.136;5.592;2023-02-19T13:33:42;10.13;;;5.40;;
23988;SDS011;12202;52.136;5.592;2023-02-19T13:36:13;10.43;;;5.28;;
23988;SDS011;12202;52.136;5.592;2023-02-19T13:38:44;7.50;;;4.38;;
23988;SDS011;12202;52.136;5.592;2023-02-19T13:41:20;7.30;;;4.38;;
23988;SDS011;12202;52.136;5.592;2023-02-19T13:43:58;12.90;;;4.50;;
23988;SDS011;12202;52.136;5.592;2023-02-19T13:46:31;6.78;;;3.60;;
23988;SDS011;12202;52.136;5.592;2023-02-19T13:51:59;7.13;;;4.15;;
23988;SDS011;12202;52.136;5.592;2023-02-19T13:54:27;9.27;;;3.50;;
23988;SDS011;12202;52.136;5.592;2023-02-19T13:59:38;8.95;;;4.22;;
23988;SDS011;12202;52.136;5.592;2023-02-19T14:02:08;4.72;;;3.20;;
23988;SDS011;12202;52.136;5.592;2023-02-19T14:04:46;8.77;;;4.03;;
23988;SDS011;12202;52.136;5.592;2023-02-19T14:14:39;6.82;;;3.75;;
23988;SDS011;12202;52.136;5.592;2023-02-19T14:24:52;6.75;;;3.30;;
23988;SDS011;12202;52.136;5.592;2023-02-19T14:27:19;5.65;;;3.15;;
23988;SDS011;12202;52.136;5.592;2023-02-19T14:29:45;7.40;;;3.20;;
23988;SDS011;12202;52.136;5.592;2023-02-19T14:32:13;6.63;;;3.53;;
23988;SDS011;12202;52.136;5.592;2023-02-19T14:34:43;6.07;;;2.55;;
23988;SDS011;12202;52.136;5.592;2023-02-19T14:37:15;6.28;;;2.70;;
23988;SDS011;12202;52.136;5.592;2023-02-19T14:39:42;5.75;;;3.20;;
23988;SDS011;12202;52.136;5.592;2023-02-19T14:42:16;6.75;;;3.35;;
23988;SDS011;12202;52.136;5.592;2023-02-19T14:44:46;7.70;;;4.88;;
23988;SDS011;12202;52.136;5.592;2023-02-19T14:47:13;7.63;;;5.15;;
23988;SDS011;12202;52.136;5.592;2023-02-19T14:49:43;8.90;;;4.50;;
23988;SDS011;12202;52.136;5.592;2023-02-19T14:52:20;6.75;;;4.03;;
23988;SDS011;12202;52.136;5.592;2023-02-19T14:54:49;7.82;;;4.88;;
23988;SDS011;12202;52.136;5.592;2023-02-19T14:57:19;5.47;;;4.22;;
23988;SDS011;12202;52.136;5.592;2023-02-19T14:59:56;7.40;;;4.53;;
23988;SDS011;12202;52.136;5.592;2023-02-19T15:02:22;13.15;;;5.43;;
23988;SDS011;12202;52.136;5.592;2023-02-19T15:04:50;8.30;;;5.03;;
23988;SDS011;12202;52.136;5.592;2023-02-19T15:07:20;7.57;;;4.50;;
23988;SDS011;12202;52.136;5.592;2023-02-19T15:09:48;4.53;;;3.42;;
23988;SDS011;12202;52.136;5.592;2023-02-19T15:12:16;5.95;;;3.88;;
23988;SDS011;12202;52.136;5.592;2023-02-19T15:14:43;6.63;;;4.40;;
23988;SDS011;12202;52.136;5.592;2023-02-19T15:17:10;9.85;;;5.47;;
23988;SDS011;12202;52.136;5.592;2023-02-19T15:19:39;8.13;;;5.45;;
23988;SDS011;12202;52.136;5.592;2023-02-19T15:22:18;5.10;;;4.07;;
23988;SDS011;12202;52.136;5.592;2023-02-19T15:24:44;6.40;;;4.20;;
23988;SDS011;12202;52.136;5.592;2023-02-19T15:27:21;3.58;;;3.03;;
23988;SDS011;12202;52.136;5.592;2023-02-19T15:29:48;3.28;;;2.58;;
23988;SDS011;12202;52.136;5.592;2023-02-19T15:32:15;4.32;;;2.70;;
23988;SDS011;12202;52.136;5.592;2023-02-19T15:34:42;2.97;;;2.63;;
23988;SDS011;12202;52.136;5.592;2023-02-19T15:37:17;5.03;;;3.88;;
23988;SDS011;12202;52.136;5.592;2023-02-19T15:39:44;4.63;;;3.17;;
23988;SDS011;12202;52.136;5.592;2023-02-19T15:42:15;7.63;;;4.20;;
23988;SDS011;12202;52.136;5.592;2023-02-19T15:44:46;5.28;;;4.07;;
23988;SDS011;12202;52.136;5.592;2023-02-19T15:47:47;10.27;;;6.68;;
23988;SDS011;12202;52.136;5.592;2023-02-19T15:53:03;5.15;;;3.15;;
23988;SDS011;12202;52.136;5.592;2023-02-19T15:55:43;5.97;;;4.45;;
23988;SDS011;12202;52.136;5.592;2023-02-19T15:58:15;6.47;;;4.47;;
23988;SDS011;12202;52.136;5.592;2023-02-19T16:01:05;6.38;;;4.25;;
23988;SDS011;12202;52.136;5.592;2023-02-19T16:03:36;8.90;;;4.63;;
23988;SDS011;12202;52.136;5.592;2023-02-19T16:08:32;7.35;;;4.25;;
23988;SDS011;12202;52.136;5.592;2023-02-19T16:10:59;12.30;;;6.32;;
23988;SDS011;12202;52.136;5.592;2023-02-19T16:13:27;5.30;;;4.35;;
23988;SDS011;12202;52.136;5.592;2023-02-19T16:15:57;4.43;;;4.03;;
23988;SDS011;12202;52.136;5.592;2023-02-19T16:18:25;8.05;;;4.10;;
23988;SDS011;12202;52.136;5.592;2023-02-19T16:20:50;5.32;;;4.05;;
23988;SDS011;12202;52.136;5.592;2023-02-19T16:23:17;7.55;;;3.83;;
23988;SDS011;12202;52.136;5.592;2023-02-19T16:25:48;8.15;;;5.03;;
23988;SDS011;12202;52.136;5.592;2023-02-19T16:28:23;4.90;;;3.72;;
23988;SDS011;12202;52.136;5.592;2023-02-19T16:31:03;5.95;;;4.30;;
23988;SDS011;12202;52.136;5.592;2023-02-19T16:35:55;6.55;;;3.58;;
23988;SDS011;12202;52.136;5.592;2023-02-19T16:38:21;9.40;;;4.43;;
23988;SDS011;12202;52.136;5.592;2023-02-19T16:43:28;8.35;;;3.95;;
23988;SDS011;12202;52.136;5.592;2023-02-19T16:45:55;9.52;;;4.45;;